Tiempo atmosférico en la estación meteorológica de Bielsa, Huesca (990 m.)

Fecha
DESCASC
Temp. máxima en grados centígrados (hora)
DESCASC
Temp. mínima en grados centígrados (hora)
DESCASC
Temp. media en grados centígrados
DESCASC
Racha de viento máxima en m/sg (hora)
DESCASC
Velocidad máxima media en intervalos de 10 minutos(hora)
DESCASC
Precipitaciones diarias en mm
DESCASC
Precipitaciones de 00:00 a 06:00 en mm
DESCASC
Precipitaciones de 06:00 a 12:00 en mm
DESCASC
Precipitaciones de 12:00 a 18:00 en mm
DESCASC
Precipitaciones de 18:00 a 24:00 en mm
DESCASC
17-09-2017 17.2 (16:30) 2.1 (07:10) 9.7 8.61 (16:00) 2.5 (13:50) 0 0 0 0 0
16-09-2017 16.8 (13:30) 1 (08:20) 8.9 9.72 (12:50) 3.61 (15:30) 13.6 0 0 13.6 0
15-09-2017 15.1 (16:10) 5.3 (23:59) 10.2 9.72 (16:20) 3.61 (16:20) 1.4 0.4 0.8 0.2 0
14-09-2017 23.2 (14:50) 8.9 (00:00) 16.1 11.94 (16:30) 4.44 (14:50) 0 0 0 0 0
13-09-2017 26.5 (16:10) 6.7 (00:00) 16.6 9.17 (14:30) 3.06 (13:00) 0 0 0 0 0
12-09-2017 22.9 (17:00) 8.2 (00:00) 15.5 11.11 (12:10) 4.72 (12:00) 0 0 0 0 0
11-09-2017 23.7 (13:30) 8.8 (00:00) 16.3 11.94 (17:00) 5.28 (17:10) 0 0 0 0 0
10-09-2017 17.6 (14:20) 9.9 (00:00) 13.8 13.33 (16:30) 6.11 (12:20) 0 0 0 0 0
09-09-2017 18.8 (14:40) 7.7 (00:00) 13.2 12.5 (17:20) 5.56 (17:10) 0.4 0 0.2 0.2 0
08-09-2017 24.5 (15:30) 5.2 (00:00) 14.8 8.89 (13:50) 2.78 (12:30) 0 0 0 0 0
07-09-2017 25.1 (16:10) 5.9 (00:00) 15.5 11.94 (16:40) 4.44 (16:30) 0 0 0 0 0
06-09-2017 25.2 (13:10) 12.2 (00:00) 18.7 13.33 (19:30) 4.72 (19:30) 0 0 0 0 0
05-09-2017 27.9 (16:50) 12.2 (00:00) 20 6.39 (20:50) 2.22 (01:40) 0 0 0 0 0
04-09-2017 24.2 (17:10) 12.6 (00:00) 18.4 6.94 (13:10) 3.06 (14:00) 0.8 0.8 0 0 0
03-09-2017 22.7 (15:00) 5.5 (00:00) 14.1 6.67 (16:10) 3.06 (10:40) 0 0 0 0 0
02-09-2017 21.4 (16:10) 7.2 (00:00) 14.3 11.94 (11:20) 4.44 (11:20) 0 0 0 0 0
01-09-2017 21.9 (15:50) 7.4 (00:00) 14.6 11.39 (18:10) 4.17 (18:30) 0 0 0 0 0
31-08-2017 21.4 (15:10) 12 (00:00) 16.7 8.61 (13:20) 3.89 (13:10) 18.8 6.8 12 0 0
30-08-2017 25.4 (13:50) 14.3 (00:00) 19.8 9.72 (10:50) 2.78 (14:30) 0 0 0 0 0
29-08-2017 26.4 (13:20) 14.2 (00:00) 20.3 10.28 (15:10) 3.06 (15:10) 0 0 0 0 0
28-08-2017 30.8 (15:20) 12.1 (00:00) 21.4 10.56 (18:30) 3.89 (18:30) 2.2 0 0 0 2.2
27-08-2017 25.8 (14:50) 15.1 (00:00) 20.4 7.22 (14:30) 3.33 (14:00) 1.4 0 0 0 1.4
26-08-2017 30 (17:40) 13.3 (00:00) 21.7 7.78 (23:20) 2.5 (23:20) 0 0 0 0 0
25-08-2017 29.6 (17:10) 12 (00:00) 20.8 -- (--) -- (--) -- -- -- 0 0
24-08-2017 30.2 (16:50) 12.2 (00:00) 21.2 11.11 (03:40) 4.72 (03:40) -- -- -- -- 0
23-08-2017 29.8 (13:20) 14.9 (00:00) 22.3 10.28 (22:50) 3.89 (23:00) -- -- -- -- --
22-08-2017 34.9 (16:10) 11.5 (00:00) 23.2 7.5 (13:10) 2.5 (13:10) 0 0 0 0 0

Gráficas

Temp. máximas Temp. mínimas Temp. medias Precipitaciones Rachas de viento máximas Velocidades máximas media en intervalos de 10 minutos

Datos horarios

Fecha y hora oficial Temperatura (ºC) Velocidad del viento (km/h) Dirección del viento Racha (km/h) Dirección de racha Precipitación (mm) Presión (hPa) Tendencia (hPa) Humedad (%)
2017-09-20 23:00:00 8.1 3 Noroeste 8 Norte 0 -- -- 82
2017-09-20 22:00:00 9 2 Noroeste 9 Noroeste 0 -- -- 78
2017-09-20 21:00:00 10.3 3 Noroeste 9 Noroeste 0 -- -- 74
2017-09-20 20:00:00 12.8 2 Noroeste 14 Noroeste 0 -- -- 63
2017-09-20 19:00:00 14.1 4 Noroeste 14 Sudeste 0 -- -- 60
2017-09-20 18:00:00 16.7 4 Sur 23 Sur 0 -- -- 47
2017-09-20 17:00:00 20.9 8 Sudeste 32 Sudeste 0 -- -- 30
2017-09-20 16:00:00 21.5 9 Sudeste 39 Este 0 -- -- 28
2017-09-20 15:00:00 21.2 9 Sudeste 37 Este 0 -- -- 26
2017-09-20 14:00:00 20.3 10 Sudeste 32 Sudeste 0 -- -- 27
2017-09-20 13:00:00 19 8 Sudeste 28 Sudeste 0 -- -- 27
2017-09-20 12:00:00 15.6 7 Sudeste 22 Sudeste 0 -- -- 31
2017-09-20 11:00:00 10.3 2 Sudeste 14 Norte 0 -- -- 61
2017-09-20 10:00:00 6.5 0 Calma 14 Sudoeste 0 -- -- 74
2017-09-20 09:00:00 3.1 2 Norte 9 Noroeste 0 -- -- 85
2017-09-20 08:00:00 2.2 2 Noroeste 9 Norte 0 -- -- 86
2017-09-20 07:00:00 2.2 0 Calma 6 Norte 0 -- -- 84
2017-09-20 06:00:00 2.5 2 Norte 9 Oeste 0 -- -- 85
2017-09-20 05:00:00 3 4 Oeste 14 Noroeste 0 -- -- 80
2017-09-20 04:00:00 3.1 2 Norte 7 Noroeste 0 -- -- 82
2017-09-20 03:00:00 4.4 3 Noroeste 13 Nordeste 0 -- -- 73
2017-09-20 02:00:00 5 3 Noroeste 12 Norte 0 -- -- 70
2017-09-20 01:00:00 6.6 5 Noroeste 16 Noroeste 0 -- -- 63
2017-09-20 00:00:00 8.5 6 Noroeste 25 Noroeste 0 -- -- 55
2017-09-19 23:00:00 11.6 10 Noroeste 38 Noroeste 0 -- -- 42
2017-09-19 22:00:00 12.1 13 Noroeste 28 Noroeste 0 -- -- 39
2017-09-19 21:00:00 12.4 8 Noroeste 25 Noroeste 0 -- -- 43
2017-09-19 20:00:00 13.4 12 Noroeste 28 Noroeste 0 -- -- 40
2017-09-19 19:00:00 14.4 9 Noroeste 32 Noroeste 0 -- -- 37
2017-09-19 18:00:00 15.6 9 Noroeste 29 Noroeste 0 -- -- 31
2017-09-19 17:00:00 17.6 14 Noroeste 33 Noroeste 0 -- -- 29
2017-09-19 16:00:00 18.5 9 Noroeste 31 Noroeste 0 -- -- 25
2017-09-19 15:00:00 18.8 13 Noroeste 37 Noroeste 0 -- -- 28
2017-09-19 14:00:00 18.5 17 Noroeste 39 Norte 0 -- -- 16
2017-09-19 13:00:00 17.8 13 Noroeste 35 Noroeste 0 -- -- 14
2017-09-19 12:00:00 16.7 13 Noroeste 37 Noroeste 0 -- -- 18
2017-09-19 11:00:00 11.2 5 Norte 19 Noroeste 0 -- -- 38
2017-09-19 10:00:00 6.7 4 Norte 8 Noroeste 0 -- -- 64
2017-09-19 09:00:00 1.6 3 Noroeste 13 Nordeste 0 -- -- 89
2017-09-19 08:00:00 1.6 3 Noroeste 10 Noroeste 0 -- -- 86
2017-09-19 07:00:00 1.9 3 Noroeste 17 Noroeste 0 -- -- 85
2017-09-19 06:00:00 2.5 6 Noroeste 15 Noroeste 0 -- -- 82
2017-09-19 05:00:00 2.9 4 Noroeste 16 Norte 0 -- -- 85
2017-09-19 04:00:00 3.4 5 Noroeste 16 Norte 0 -- -- 85
2017-09-19 03:00:00 3.2 3 Noroeste 10 Noroeste 0 -- -- 93
2017-09-19 02:00:00 4 0 Calma 7 Noroeste 0 -- -- 93
2017-09-19 01:00:00 4.7 3 Norte 5 Noroeste 0 -- -- 92
2017-09-19 00:00:00 5.6 2 Norte 14 Este 0 -- -- 90
2017-09-18 23:00:00 6.2 0 Calma 13 Nordeste 0 -- -- 92
2017-09-18 22:00:00 7.5 0 Calma 5 Sudeste 0 -- -- 89
2017-09-18 21:00:00 9.7 0 Calma 18 Noroeste 0 -- -- 79
2017-09-18 20:00:00 12.3 8 Norte 21 Noroeste 0 -- -- 65
2017-09-18 19:00:00 14.3 6 Noroeste 18 Noroeste 0 -- -- 59
2017-09-18 18:00:00 15.8 0 Calma 4 Sudoeste 0 -- -- 76
2017-09-18 17:00:00 16.7 0 Calma 12 Sudeste 0 -- -- 64
2017-09-18 16:00:00 16.6 7 Sudeste 22 Sur 0 -- -- 56
2017-09-18 15:00:00 15.8 4 Sudeste 16 Sur 0 -- -- 58
2017-09-18 14:00:00 16.2 4 Sudeste 12 Sudeste 0 -- -- 56
2017-09-18 13:00:00 14.6 3 Este 14 Noroeste 0 -- -- 59
2017-09-18 12:00:00 10.8 4 Noroeste 14 Norte 0 -- -- 84
2017-09-18 11:00:00 9.3 5 Norte 13 Norte 0 -- -- 94
2017-09-18 10:00:00 8.2 3 Norte 9 Norte 0.4 -- -- 97
2017-09-18 09:00:00 7.8 3 Sudeste 8 Este 1.6 -- -- 97
2017-09-18 08:00:00 7.6 2 Sudeste 15 Sudoeste 1.6 -- -- 95
2017-09-18 07:00:00 7.5 3 Norte 15 Norte 0 -- -- 93
2017-09-18 06:00:00 7.5 3 Noroeste 10 Noroeste 0 -- -- 85
2017-09-18 05:00:00 7.3 0 Calma 7 Oeste 0 -- -- 86
2017-09-18 04:00:00 7.3 3 Noroeste 7 Norte 0 -- -- 86
2017-09-18 03:00:00 7.3 0 Calma 7 Noroeste 0 -- -- 86
2017-09-18 02:00:00 7.6 0 Calma 6 Oeste 0 -- -- 87
2017-09-18 01:00:00 7.7 0 Calma 9 Noroeste 0 -- -- 85
2017-09-18 00:00:00 8.8 0 Calma 5 Oeste 0 -- -- 81
2017-09-17 23:00:00 8.9 0 Calma 6 Este 0 -- -- 81
2017-09-17 22:00:00 9.4 0 Calma 8 Noroeste 0 -- -- 75
2017-09-17 21:00:00 11.5 3 Nordeste 18 Este 0 -- -- 62
2017-09-17 20:00:00 12.2 3 Sudeste 20 Nordeste 0 -- -- 59
2017-09-17 19:00:00 14.4 5 Sudeste 17 Este 0 -- -- 43
2017-09-17 18:00:00 15.3 3 Sur 27 Sudeste 0 -- -- 53
2017-09-17 17:00:00 16.4 5 Sudeste 22 Sur 0 -- -- 42
2017-09-17 16:00:00 16.5 7 Sudeste 31 Sur 0 -- -- 45
2017-09-17 15:00:00 16.2 5 Sudeste 21 Sudeste 0 -- -- 48
2017-09-17 14:00:00 16.4 6 Sudeste 27 Nordeste 0 -- -- 47
2017-09-17 13:00:00 14.5 8 Sudeste 24 Sudeste 0 -- -- 50
2017-09-17 12:00:00 11.6 6 Sudeste 18 Sudeste 0 -- -- 59
2017-09-17 11:00:00 8 2 Este 8 Noroeste 0 -- -- 91
2017-09-17 10:00:00 4.8 0 Calma 18 Este 0 -- -- 99
2017-09-17 09:00:00 2.4 4 Noroeste 9 Oeste 0 -- -- 99
2017-09-17 08:00:00 2.3 0 Calma 16 Norte 0 -- -- 99
2017-09-17 07:00:00 2.2 2 Norte 6 Noroeste 0 -- -- 99
2017-09-17 06:00:00 3 2 Norte 11 Norte 0 -- -- 98
2017-09-17 05:00:00 3.4 2 Norte 8 Norte 0 -- -- 99
2017-09-17 04:00:00 3 0 Calma 15 Noroeste 0 -- -- 98
2017-09-17 03:00:00 2.2 3 Noroeste 10 Noroeste 0 -- -- 98
2017-09-17 02:00:00 2.6 0 Calma 13 Norte 0 -- -- 97
2017-09-17 01:00:00 2.9 3 Noroeste 10 Norte 0 -- -- 98
2017-09-17 00:00:00 3.3 2 Noroeste 14 Este 0 -- -- 97
2017-09-16 23:00:00 4.1 3 Noroeste 12 Norte 0 -- -- 96
2017-09-16 22:00:00 4.9 0 Calma 18 Noroeste 0 -- -- 96
2017-09-16 21:00:00 5.5 2 Noroeste 9 Norte 0 -- -- 94
2017-09-16 20:00:00 6.8 3 Norte 21 Norte 0 -- -- 93
2017-09-16 19:00:00 7.1 9 Norte 20 Norte 0 -- -- 92
2017-09-16 18:00:00 6.9 2 Noroeste 13 Sudeste 0.2 -- -- 96
2017-09-16 17:00:00 5.9 2 Este 15 Noroeste 2.6 -- -- 94
2017-09-16 16:00:00 -- 3 Oeste 33 Norte 7.6 -- -- 85
2017-09-16 15:00:00 10.2 2 Noroeste 25 Noroeste 3.2 -- -- 87
2017-09-16 14:00:00 14.1 9 Sudeste 31 Sur 0 -- -- 47
2017-09-16 13:00:00 15.5 9 Sudeste 35 Este 0 -- -- 42
2017-09-16 12:00:00 13.3 6 Sudeste 28 Este 0 -- -- 49
2017-09-16 11:00:00 8.2 4 Sudeste 12 Sudeste 0 -- -- 59
2017-09-16 10:00:00 4.1 2 Este 9 Este 0 -- -- 85
2017-09-16 09:00:00 1.4 2 Noroeste 7 Noroeste 0 -- -- 95
2017-09-16 08:00:00 1.1 0 Calma 5 Noroeste 0 -- -- 94
2017-09-16 07:00:00 1.9 5 Noroeste 14 Noroeste 0 -- -- 88
2017-09-16 06:00:00 1.7 0 Calma 6 Noroeste 0 -- -- 94
2017-09-16 05:00:00 2.2 2 Noroeste 9 Noroeste 0 -- -- 91
2017-09-16 04:00:00 2.8 3 Noroeste 14 Norte 0 -- -- 90
2017-09-16 03:00:00 3 3 Noroeste 13 Nordeste 0 -- -- 93
2017-09-16 02:00:00 3.5 3 Noroeste 13 Nordeste 0 -- -- 95
2017-09-16 01:00:00 4.4 0 Calma 5 Norte 0 -- -- 93
2017-09-16 00:00:00 5.3 0 Calma 14 Nordeste 0 -- -- 91
2017-09-15 23:00:00 6.8 2 Noroeste 10 Noroeste 0 -- -- 91
2017-09-15 22:00:00 7.8 0 Calma 4 Norte 0 -- -- 91
2017-09-15 21:00:00 8.9 0 Calma 15 Nordeste 0 -- -- 89
2017-09-15 20:00:00 10.4 2 Este 14 Sudeste 0 -- -- 86
2017-09-15 19:00:00 11 4 Sudeste 24 Este 0 -- -- 80
2017-09-15 18:00:00 12.2 6 Este 23 Este 0 -- -- 70
2017-09-15 17:00:00 12.9 8 Sudeste 35 Sudeste 0 -- -- 67
2017-09-15 16:00:00 14.7 10 Sudeste 29 Sur 0 -- -- 59
2017-09-15 15:00:00 12.7 7 Sudeste 26 Sur 0 -- -- 69
2017-09-15 14:00:00 11.8 6 Sudeste 19 Sudeste 0 -- -- 81
2017-09-15 13:00:00 9.7 6 Sudeste 22 Sur 0.2 -- -- 87
2017-09-15 12:00:00 10.1 5 Sudeste 18 Sur 0 -- -- 84
2017-09-15 11:00:00 9.5 5 Sudeste 16 Sur 0 -- -- 88
2017-09-15 10:00:00 9.4 4 Sudeste 10 Sudeste 0 -- -- 94
2017-09-15 09:00:00 8.6 4 Este 9 Este 0 -- -- 95
2017-09-15 08:00:00 8.5 0 Calma 5 Este 0 -- -- 94
2017-09-15 07:00:00 8.7 2 Norte 19 Este 0.8 -- -- 93
2017-09-15 06:00:00 9.5 3 Sudeste 14 Este 0.4 -- -- 86
2017-09-15 05:00:00 11.4 4 Sudeste 32 Este 0 -- -- 65
2017-09-15 04:00:00 11.6 4 Este 17 Sudeste 0 -- -- 61
2017-09-15 03:00:00 10.8 3 Sudoeste 9 Noroeste 0 -- -- 73
2017-09-15 02:00:00 11.5 4 Noroeste 10 Noroeste 0 -- -- 71
2017-09-15 01:00:00 11.1 0 Calma 8 Noroeste 0 -- -- 73
2017-09-15 00:00:00 10.5 3 Noroeste 10 Norte 0 -- -- 75
2017-09-14 23:00:00 11.3 5 Noroeste 14 Noroeste 0 -- -- 71
2017-09-14 22:00:00 11.5 3 Nordeste 12 Norte 0 -- -- 71
2017-09-14 21:00:00 13.7 0 Calma 23 Noroeste 0 -- -- 59
2017-09-14 20:00:00 16.1 12 Noroeste 36 Noroeste 0 -- -- 47
2017-09-14 19:00:00 17.4 13 Noroeste 39 Noroeste 0 -- -- 46
2017-09-14 18:00:00 18.8 13 Noroeste 41 Noroeste 0 -- -- 44
2017-09-14 17:00:00 20 11 Noroeste 43 Noroeste 0 -- -- 42
2017-09-14 16:00:00 21.5 9 Noroeste 37 Oeste 0 -- -- 39
2017-09-14 15:00:00 22.8 14 Noroeste 36 Noroeste 0 -- -- 37
2017-09-14 14:00:00 20.8 8 Noroeste 26 Noroeste 0 -- -- 42
2017-09-14 13:00:00 21.5 13 Noroeste 36 Noroeste 0 -- -- 38
2017-09-14 12:00:00 22 9 Noroeste 28 Noroeste 0 -- -- 38
2017-09-14 11:00:00 17.4 4 Sudeste 12 Sur 0 -- -- 63
2017-09-14 10:00:00 12.6 2 Este 15 Este 0 -- -- 85
2017-09-14 09:00:00 9.3 0 Calma 6 Noroeste 0 -- -- 93
2017-09-14 08:00:00 9 0 Calma 9 Noroeste 0 -- -- 93
2017-09-14 07:00:00 9 2 Noroeste 16 Nordeste 0 -- -- 92
2017-09-14 06:00:00 9.4 0 Calma 10 Norte 0 -- -- 91
2017-09-14 05:00:00 9.7 0 Calma 9 Noroeste 0 -- -- 91
2017-09-14 04:00:00 9.8 3 Noroeste 15 Norte 0 -- -- 90
2017-09-14 03:00:00 10.1 0 Calma 5 Noroeste 0 -- -- 89
2017-09-14 02:00:00 10.6 0 Calma 7 Noroeste 0 -- -- 87
2017-09-14 01:00:00 11.3 3 Noroeste 9 Noroeste 0 -- -- 83
2017-09-14 00:00:00 12 3 Noroeste 5 Norte 0 -- -- 81
2017-09-13 23:00:00 13.1 2 Noroeste 7 Norte 0 -- -- 77
2017-09-13 22:00:00 14.6 4 Noroeste 10 Noroeste 0 -- -- 69
2017-09-13 21:00:00 15.2 3 Noroeste 7 Norte 0 -- -- 69
2017-09-13 20:00:00 17.2 0 Calma 8 Sudeste 0 -- -- 60
2017-09-13 19:00:00 19.4 2 Sur 10 Este 0 -- -- 53
2017-09-13 18:00:00 23.2 6 Sur 24 Este 0 -- -- 35
2017-09-13 17:00:00 25.6 9 Sudeste 28 Sur 0 -- -- 29
2017-09-13 16:00:00 26.2 8 Sudeste 29 Este 0 -- -- 28
2017-09-13 15:00:00 25.6 9 Sudeste 33 Sudeste 0 -- -- 27
2017-09-13 14:00:00 24.9 8 Sudeste 31 Sudeste 0 -- -- 27
2017-09-13 13:00:00 23.5 11 Este 31 Este 0 -- -- 27
2017-09-13 12:00:00 21 7 Sudeste 22 Sudeste 0 -- -- 31
2017-09-13 11:00:00 15.4 5 Este 14 Sudeste 0 -- -- 50
2017-09-13 10:00:00 11.5 2 Sudeste 9 Noroeste 0 -- -- 72
2017-09-13 09:00:00 7.3 0 Calma 8 Norte 0 -- -- 82
2017-09-13 08:00:00 6.9 0 Calma 9 Oeste 0 -- -- 83
2017-09-13 07:00:00 6.8 0 Calma 8 Noroeste 0 -- -- 81
2017-09-13 06:00:00 7 2 Noroeste 10 Noroeste 0 -- -- 79
2017-09-13 05:00:00 7.3 3 Norte 10 Noroeste 0 -- -- 77
2017-09-13 04:00:00 7.7 3 Noroeste 9 Noroeste 0 -- -- 71
2017-09-13 03:00:00 8.1 0 Calma 5 Noroeste 0 -- -- 70
2017-09-13 02:00:00 9.2 2 Norte 12 Noroeste 0 -- -- 64
2017-09-13 01:00:00 8.8 2 Noroeste 10 Noroeste 0 -- -- 63
2017-09-13 00:00:00 9.4 2 Oeste 14 Oeste 0 -- -- 63
2017-09-12 23:00:00 10.3 3 Noroeste 12 Noroeste 0 -- -- 64
2017-09-12 22:00:00 11.4 2 Noroeste 8 Oeste 0 -- -- 63
2017-09-12 21:00:00 13 0 Calma 15 Noroeste 0 -- -- 53
2017-09-12 20:00:00 16.5 6 Noroeste 26 Noroeste 0 -- -- 37
2017-09-12 19:00:00 18.2 8 Noroeste 30 Noroeste 0 -- -- 32
2017-09-12 18:00:00 20.1 10 Noroeste 25 Noroeste 0 -- -- 28
2017-09-12 17:00:00 22.2 8 Noroeste 28 Norte 0 -- -- 22
2017-09-12 16:00:00 22 12 Noroeste 29 Noroeste 0 -- -- 24
2017-09-12 15:00:00 22 9 Norte 29 Norte 0 -- -- 23
2017-09-12 14:00:00 20.2 15 Noroeste 31 Noroeste 0 -- -- 26
2017-09-12 13:00:00 19 12 Noroeste 40 Norte 0 -- -- 28
2017-09-12 12:00:00 17.8 17 Noroeste 33 Noroeste 0 -- -- 33
2017-09-12 11:00:00 16.7 10 Noroeste 30 Noroeste 0 -- -- 44
2017-09-12 10:00:00 14.8 10 Noroeste 22 Noroeste 0 -- -- 52
2017-09-12 09:00:00 11 5 Noroeste 18 Norte 0 -- -- 72
2017-09-12 08:00:00 8.6 2 Noroeste 8 Noroeste 0 -- -- 84
2017-09-12 07:00:00 8.6 0 Calma 6 Norte 0 -- -- 86
2017-09-12 06:00:00 9 3 Norte 6 Noroeste 0 -- -- 83
2017-09-12 05:00:00 8.9 0 Calma 5 Sur 0 -- -- 86
2017-09-12 04:00:00 9.6 0 Calma 11 Noroeste 0 -- -- 82
2017-09-12 03:00:00 9.9 3 Este 12 Norte 0 -- -- 81
2017-09-12 02:00:00 11.2 4 Noroeste 10 Sur 0 -- -- 76
2017-09-12 01:00:00 10.8 2 Oeste 7 Norte 0 -- -- 78
2017-09-12 00:00:00 10.3 3 Oeste 10 Noroeste 0 -- -- 77
2017-09-11 23:00:00 10.8 2 Norte 8 Noroeste 0 -- -- 74
2017-09-11 22:00:00 11.5 2 Norte 5 Norte 0 -- -- 72
2017-09-11 21:00:00 13.5 2 Noroeste 11 Norte 0 -- -- 62
2017-09-11 20:00:00 16.2 4 Norte 28 Noroeste 0 -- -- 52
2017-09-11 19:00:00 18.4 8 Noroeste 32 Noroeste 0 -- -- 46
2017-09-11 18:00:00 20.6 12 Noroeste 40 Noroeste 0 -- -- 37
2017-09-11 17:00:00 21.8 17 Noroeste 43 Noroeste 0 -- -- 35
2017-09-11 16:00:00 20.7 6 Noroeste 24 Sudoeste 0 -- -- 41
2017-09-11 15:00:00 20.7 12 Noroeste 35 Noroeste 0 -- -- 42
2017-09-11 14:00:00 21.9 12 Norte 29 Noroeste 0 -- -- 36
2017-09-11 13:00:00 22.8 10 Noroeste 28 Norte 0 -- -- 36
2017-09-11 12:00:00 18.5 0 Calma 8 Este 0 -- -- 59
2017-09-11 11:00:00 15.8 2 Sudeste 6 Sudeste 0 -- -- 70
2017-09-11 10:00:00 13.5 2 Norte 10 Este 0 -- -- 71
2017-09-11 09:00:00 10.6 3 Sudeste 10 Este 0 -- -- 80
2017-09-11 08:00:00 9 3 Noroeste 10 Norte 0 -- -- 85
2017-09-11 07:00:00 9.3 3 Nordeste 8 Norte 0 -- -- 84
2017-09-11 06:00:00 9.3 2 Norte 6 Este 0 -- -- 83
2017-09-11 05:00:00 9.5 3 Sudeste 8 Noroeste 0 -- -- 80
2017-09-11 04:00:00 10.3 2 Norte 12 Este 0 -- -- 76
2017-09-11 03:00:00 12.1 6 Noroeste 18 Noroeste 0 -- -- 70
2017-09-11 02:00:00 10 2 Sur 6 Este 0 -- -- 78
2017-09-11 01:00:00 11.3 3 Este 20 Noroeste 0 -- -- 67
2017-09-11 00:00:00 11.6 5 Noroeste 13 Noroeste 0 -- -- 66
2017-09-10 23:00:00 11.9 2 Noroeste 9 Noroeste 0 -- -- 64
2017-09-10 22:00:00 12.4 3 Noroeste 10 Noroeste 0 -- -- 61
2017-09-10 21:00:00 13.2 5 Noroeste 14 Norte 0 -- -- 54
2017-09-10 20:00:00 14.1 8 Noroeste 26 Noroeste 0 -- -- 49
2017-09-10 19:00:00 14.9 9 Noroeste 36 Noroeste 0 -- -- 47
2017-09-10 18:00:00 16.1 9 Noroeste 31 Noroeste 0 -- -- 43
2017-09-10 17:00:00 15.5 10 Noroeste 48 Noroeste 0 -- -- 43
2017-09-10 16:00:00 15.6 13 Noroeste 39 Noroeste 0 -- -- 42
2017-09-10 15:00:00 16.5 10 Noroeste 41 Noroeste 0 -- -- 40
2017-09-10 14:00:00 16.3 16 Noroeste 44 Noroeste 0 -- -- 39
2017-09-10 13:00:00 16.5 12 Noroeste 44 Noroeste 0 -- -- 40
2017-09-10 12:00:00 15.6 15 Noroeste 47 Noroeste 0 -- -- 37
2017-09-10 11:00:00 13 10 Noroeste 36 Norte 0 -- -- 51
2017-09-10 10:00:00 11.5 13 Norte 33 Norte 0 -- -- 58
2017-09-10 09:00:00 10.5 13 Noroeste 29 Noroeste 0 -- -- 64
2017-09-10 08:00:00 10.7 10 Noroeste 35 Noroeste 0 -- -- 57
2017-09-10 07:00:00 11.3 14 Noroeste 36 Noroeste 0 -- -- 48
2017-09-10 06:00:00 10.9 8 Noroeste 25 Noroeste 0 -- -- 51
2017-09-10 05:00:00 10.3 6 Noroeste 26 Noroeste 0 -- -- 53
2017-09-10 04:00:00 10.5 9 Noroeste 33 Noroeste 0 -- -- 49
2017-09-10 03:00:00 11.1 11 Noroeste 29 Norte 0 -- -- 49
2017-09-10 02:00:00 11.2 9 Noroeste 28 Noroeste 0 -- -- 51
2017-09-10 01:00:00 11.1 5 Norte 27 Noroeste 0 -- -- 54
2017-09-10 00:00:00 11.7 13 Noroeste 29 Noroeste 0 -- -- 49
2017-09-09 23:00:00 12.2 10 Noroeste 24 Norte 0 -- -- 49
2017-09-09 22:00:00 11.8 9 Norte 32 Noroeste 0 -- -- 52
2017-09-09 21:00:00 12.3 9 Noroeste 39 Noroeste 0 -- -- 53
2017-09-09 20:00:00 13.4 9 Noroeste 38 Norte 0 -- -- 47
2017-09-09 19:00:00 14.3 17 Noroeste 40 Noroeste 0 -- -- 46
2017-09-09 18:00:00 15.4 15 Noroeste 45 Noroeste 0 -- -- 44
2017-09-09 17:00:00 16.5 14 Noroeste 44 Noroeste 0 -- -- 40
2017-09-09 16:00:00 17.3 17 Noroeste 43 Noroeste 0 -- -- 36
2017-09-09 15:00:00 18.5 13 Norte 35 Noroeste 0 -- -- 34
2017-09-09 14:00:00 14.5 4 Noroeste 9 Noroeste 0 -- -- 72
2017-09-09 13:00:00 11.7 0 Calma 24 Noroeste 0.2 -- -- 86
2017-09-09 12:00:00 11.8 15 Noroeste 39 Noroeste 0.2 -- -- 71
2017-09-09 11:00:00 11.5 2 Norte 14 Este 0 -- -- 89
2017-09-09 10:00:00 10.9 4 Norte 19 Noroeste 0 -- -- 85
2017-09-09 09:00:00 10.2 0 Calma 13 Norte 0 -- -- 84
2017-09-09 08:00:00 9.4 0 Calma 14 Norte 0 -- -- 80
2017-09-09 07:00:00 8.4 0 Calma 6 Noroeste 0 -- -- 79
2017-09-09 06:00:00 8.3 2 Noroeste 9 Noroeste 0 -- -- 77
2017-09-09 05:00:00 7.8 0 Calma 7 Noroeste 0 -- -- 80
2017-09-09 04:00:00 7.8 0 Calma 8 Norte 0 -- -- 76
2017-09-09 03:00:00 8.2 0 Calma 8 Noroeste 0 -- -- 76
2017-09-09 02:00:00 8.2 2 Noroeste 7 Noroeste 0 -- -- 74
2017-09-09 01:00:00 8.7 2 Noroeste 7 Noroeste 0 -- -- 72
2017-09-09 00:00:00 9.5 0 Calma 6 Noroeste 0 -- -- 68
2017-09-08 23:00:00 10.4 2 Noroeste 8 Noroeste 0 -- -- 68
2017-09-08 22:00:00 11.6 0 Calma 8 Noroeste 0 -- -- 67
2017-09-08 21:00:00 13.6 0 Calma 7 Noroeste 0 -- -- 59
2017-09-08 20:00:00 16.6 2 Noroeste 10 Sudeste 0 -- -- 53
2017-09-08 19:00:00 20.4 5 Sudeste 19 Sur 0 -- -- 35
2017-09-08 18:00:00 23.3 6 Sudeste 24 Sur 0 -- -- 29
2017-09-08 17:00:00 24 7 Sudeste 27 Sur 0 -- -- 30
2017-09-08 16:00:00 24.3 9 Sudeste 27 Sur 0 -- -- 24
2017-09-08 15:00:00 24 7 Sudeste 28 Sur 0 -- -- 26
2017-09-08 14:00:00 23.1 10 Sudeste 32 Sudeste 0 -- -- 30
2017-09-08 13:00:00 21.8 7 Sudeste 23 Este 0 -- -- 32
2017-09-08 12:00:00 20.1 5 Sudeste 17 Sur 0 -- -- 39
2017-09-08 11:00:00 14.5 2 Nordeste 6 Noroeste 0 -- -- 49
2017-09-08 10:00:00 11.3 0 Calma 15 Noroeste 0 -- -- 61
2017-09-08 09:00:00 6.1 0 Calma 7 Noroeste 0 -- -- 77
2017-09-08 08:00:00 5.5 2 Noroeste 15 Noroeste 0 -- -- 74
2017-09-08 07:00:00 5.3 2 Norte 7 Noroeste 0 -- -- 75
2017-09-08 06:00:00 5.8 0 Calma 7 Nordeste 0 -- -- 74
2017-09-08 05:00:00 6.4 0 Calma 12 Noroeste 0 -- -- 73
2017-09-08 04:00:00 7.3 3 Noroeste 11 Noroeste 0 -- -- 67
2017-09-08 03:00:00 8.2 0 Calma 12 Noroeste 0 -- -- 66
2017-09-08 02:00:00 9.5 3 Noroeste 12 Noroeste 0 -- -- 62
2017-09-08 01:00:00 10.7 6 Noroeste 15 Norte 0 -- -- 58
2017-09-08 00:00:00 10.8 2 Noroeste 10 Noroeste 0 -- -- 62
2017-09-07 23:00:00 12.6 2 Sur 15 Noroeste 0 -- -- 55
2017-09-07 22:00:00 14.1 5 Norte 21 Norte 0 -- -- 47
2017-09-07 21:00:00 14.6 4 Noroeste 15 Noroeste 0 -- -- 53
2017-09-07 20:00:00 17.6 5 Noroeste 17 Noroeste 0 -- -- 39
2017-09-07 19:00:00 20.2 5 Noroeste 26 Noroeste 0 -- -- 30
2017-09-07 18:00:00 23.4 6 Noroeste 33 Noroeste 0 -- -- 20
2017-09-07 17:00:00 24.2 13 Noroeste 43 Noroeste 0 -- -- 17
2017-09-07 16:00:00 24.5 10 Norte 24 Norte 0 -- -- 18
2017-09-07 15:00:00 24.3 10 Sudeste 26 Sudeste 0 -- -- 35
2017-09-07 14:00:00 23.5 9 Sudeste 29 Sur 0 -- -- 36
2017-09-07 13:00:00 22.3 9 Sudeste 28 Sudeste 0 -- -- 40
2017-09-07 12:00:00 19.5 6 Este 16 Este 0 -- -- 38
2017-09-07 11:00:00 14.7 3 Norte 9 Noroeste 0 -- -- 48
2017-09-07 10:00:00 10.7 0 Calma 10 Noroeste 0 -- -- 61
2017-09-07 09:00:00 6.8 0 Calma 13 Noroeste 0 -- -- 83
2017-09-07 08:00:00 6 2 Noroeste 8 Noroeste 0 -- -- 85
2017-09-07 07:00:00 6.4 0 Calma 9 Oeste 0 -- -- 81
2017-09-07 06:00:00 7 0 Calma 8 Noroeste 0 -- -- 79
2017-09-07 05:00:00 8 3 Noroeste 9 Noroeste 0 -- -- 83
2017-09-07 04:00:00 8.4 2 Norte 10 Norte 0 -- -- 79
2017-09-07 03:00:00 9.4 0 Calma 8 Noroeste 0 -- -- 78
2017-09-07 02:00:00 10.8 2 Norte 10 Noroeste 0 -- -- 79
2017-09-07 01:00:00 12.6 2 Noroeste 13 Noroeste 0 -- -- 82
2017-09-07 00:00:00 13.6 3 Noroeste 10 Norte 0 -- -- 78
2017-09-06 23:00:00 15.5 2 Norte 18 Noroeste 0 -- -- 69
2017-09-06 22:00:00 17.1 6 Norte 27 Noroeste 0 -- -- 62
2017-09-06 21:00:00 18.9 11 Noroeste 41 Noroeste 0 -- -- 55
2017-09-06 20:00:00 19.4 16 Noroeste 48 Noroeste 0 -- -- 56
2017-09-06 19:00:00 20.6 13 Noroeste 37 Noroeste 0 -- -- 54
2017-09-06 18:00:00 22.2 12 Noroeste 37 Noroeste 0 -- -- 48
2017-09-06 17:00:00 22.7 12 Noroeste 33 Noroeste 0 -- -- 47
2017-09-06 16:00:00 23.7 13 Noroeste 28 Noroeste 0 -- -- 43
2017-09-06 15:00:00 23.8 9 Noroeste 23 Noroeste 0 -- -- 44
2017-09-06 14:00:00 24.5 5 Sudeste 26 Sur 0 -- -- 48
2017-09-06 13:00:00 25 10 Sudeste 27 Este 0 -- -- 51
2017-09-06 12:00:00 22.4 7 Este 20 Este 0 -- -- 57
2017-09-06 11:00:00 18.8 2 Sudeste 6 Este 0 -- -- 71
2017-09-06 10:00:00 16 0 Calma 13 Noroeste 0 -- -- 83
2017-09-06 09:00:00 13.5 2 Noroeste 8 Noroeste 0 -- -- 90
2017-09-06 08:00:00 12.7 0 Calma 12 Noroeste 0 -- -- 88
2017-09-06 07:00:00 12.4 0 Calma 12 Noroeste 0 -- -- 91
2017-09-06 06:00:00 12.4 3 Noroeste 13 Norte 0 -- -- 90
2017-09-06 05:00:00 12.5 3 Noroeste 7 Noroeste 0 -- -- 92
2017-09-06 04:00:00 12.9 0 Calma 9 Noroeste 0 -- -- 89
2017-09-06 03:00:00 13.7 2 Noroeste 13 Noroeste 0 -- -- 88
2017-09-06 02:00:00 14.5 2 Noroeste 11 Noroeste 0 -- -- 87
2017-09-06 01:00:00 15.2 3 Noroeste 12 Noroeste 0 -- -- 86
2017-09-06 00:00:00 15.8 2 Norte 6 Norte 0 -- -- 85
2017-09-05 23:00:00 17.3 0 Calma 16 Noroeste 0 -- -- 81
2017-09-05 22:00:00 17.9 2 Nordeste 15 Noroeste 0 -- -- 78
2017-09-05 21:00:00 20.5 6 Norte 23 Norte 0 -- -- 64
2017-09-05 20:00:00 20.9 0 Calma 13 Noroeste 0 -- -- 68
2017-09-05 19:00:00 22.3 2 Norte 7 Sur 0 -- -- 62
2017-09-05 18:00:00 27.4 4 Sur 17 Sur 0 -- -- 41
2017-09-05 17:00:00 27.8 6 Sudeste 20 Sur 0 -- -- 40
2017-09-05 16:00:00 27.1 5 Sudeste 17 Sur 0 -- -- 44
2017-09-05 15:00:00 24.3 3 Sudeste 7 Sur 0 -- -- 58
2017-09-05 14:00:00 21.2 0 Calma 5 Sur 0 -- -- 73
2017-09-05 13:00:00 20.6 0 Calma 10 Sur 0 -- -- 73
2017-09-05 12:00:00 21.5 4 Sudeste 16 Sur 0 -- -- 59
2017-09-05 11:00:00 18.5 4 Sudeste 8 Sudeste 0 -- -- 70
2017-09-05 10:00:00 15.6 2 Este 10 Noroeste 0 -- -- 86
2017-09-05 09:00:00 12.4 3 Noroeste 7 Noroeste 0 -- -- 97
2017-09-05 08:00:00 12.3 0 Calma 7 Noroeste 0 -- -- 95
2017-09-05 07:00:00 12.9 4 Noroeste 9 Noroeste 0 -- -- 96
2017-09-05 06:00:00 13.8 0 Calma 7 Noroeste 0 -- -- 92
2017-09-05 05:00:00 14.5 3 Noroeste 6 Noroeste 0 -- -- 92
2017-09-05 04:00:00 14.2 2 Norte 7 Noroeste 0 -- -- 92
2017-09-05 03:00:00 14.4 0 Calma 10 Noroeste 0 -- -- 89
2017-09-05 02:00:00 15.5 3 Noroeste 18 Norte 0 -- -- 84
2017-09-05 01:00:00 17.2 2 Norte 10 Este 0 -- -- 84
2017-09-05 00:00:00 18.3 3 Sudeste 21 Sur 0 -- -- 79
2017-09-04 23:00:00 16.8 2 Norte 10 Noroeste 0 -- -- 84
2017-09-04 22:00:00 16.1 3 Norte 15 Norte 0 -- -- 83
2017-09-04 21:00:00 17.3 2 Norte 7 Noroeste 0 -- -- 77
2017-09-04 20:00:00 18.8 0 Calma 7 Noroeste 0 -- -- 74
2017-09-04 19:00:00 20.9 3 Oeste 9 Este 0 -- -- 62
2017-09-04 18:00:00 23.9 2 Sur 14 Sur 0 -- -- 55
2017-09-04 17:00:00 23.7 3 Este 13 Sur 0 -- -- 50
2017-09-04 16:00:00 21.8 3 Noroeste 16 Noroeste 0 -- -- 56
2017-09-04 15:00:00 20.6 7 Norte 19 Noroeste 0 -- -- 60
2017-09-04 14:00:00 21.2 11 Noroeste 25 Sur 0 -- -- 55
2017-09-04 13:00:00 23.5 9 Sudeste 23 Sudeste 0 -- -- 46
2017-09-04 12:00:00 20.3 4 Sudeste 22 Este 0 -- -- 60
2017-09-04 11:00:00 17.2 0 Calma -- -- -- -- -- 74
2017-09-04 10:00:00 15.3 2 Sudeste 8 Norte 0 -- -- 91
2017-09-04 09:00:00 13.6 0 Calma 24 Norte 0 -- -- 96
2017-09-04 08:00:00 12.8 3 Noroeste 11 Noroeste 0 -- -- 97
2017-09-04 07:00:00 12.8 3 Noroeste 11 Norte 0 -- -- 97
2017-09-04 06:00:00 13 0 Calma 9 Norte 0 -- -- 97
2017-09-04 05:00:00 13 0 Calma 9 Norte 0 -- -- 96
2017-09-04 04:00:00 13.1 4 Noroeste 10 Noroeste 0.6 -- -- 96
2017-09-04 03:00:00 13.9 0 Calma 22 Norte 0 -- -- 91
2017-09-04 02:00:00 13.7 5 Norte 13 Noroeste 0.2 -- -- 95
2017-09-04 01:00:00 14.2 3 Nordeste 6 Este 0 -- -- 88
2017-09-04 00:00:00 14.5 0 Calma 10 Noroeste 0 -- -- 85
2017-09-03 23:00:00 14.6 0 Calma 10 Norte 0 -- -- 83
2017-09-03 22:00:00 14.5 2 Noroeste 7 Oeste 0 -- -- 85
2017-09-03 21:00:00 15.3 3 Noroeste 10 Norte 0 -- -- 76
2017-09-03 20:00:00 17.8 2 Noroeste 5 Noroeste 0 -- -- 70
2017-09-03 19:00:00 18.9 0 Calma 5 Norte 0 -- -- 65
2017-09-03 18:00:00 20.5 0 Calma 4 Noroeste 0 -- -- 57
2017-09-03 17:00:00 21.5 3 Sur 24 Sur 0 -- -- 50
2017-09-03 16:00:00 22.6 5 Sudeste 21 Sudeste 0 -- -- 33
2017-09-03 15:00:00 22.7 7 Sudeste 24 Sudeste 0 -- -- 29
2017-09-03 14:00:00 21.8 8 Sudeste 23 Sudeste 0 -- -- 32
2017-09-03 13:00:00 17.8 6 Sudeste 22 Este 0 -- -- 39
2017-09-03 12:00:00 15.8 4 Este 14 Sur 0 -- -- 46
2017-09-03 11:00:00 13.5 6 Norte 22 Norte 0 -- -- 57
2017-09-03 10:00:00 10.8 0 Calma 15 Norte 0 -- -- 73
2017-09-03 09:00:00 8.9 3 Noroeste 14 Noroeste 0 -- -- 73
2017-09-03 08:00:00 7.1 4 Nordeste 13 Noroeste 0 -- -- 76
2017-09-03 07:00:00 5.8 0 Calma 15 Noroeste 0 -- -- 78
2017-09-03 06:00:00 5.6 3 Noroeste 10 Noroeste 0 -- -- 77
2017-09-03 05:00:00 5.9 3 Noroeste 13 Sudeste 0 -- -- 76
2017-09-03 04:00:00 6.2 0 Calma 7 Norte 0 -- -- 77
2017-09-03 03:00:00 6.4 0 Calma 8 Noroeste 0 -- -- 74
2017-09-03 02:00:00 6.9 2 Noroeste 10 Noroeste 0 -- -- 72
2017-09-03 01:00:00 7.4 2 Noroeste 13 Noroeste 0 -- -- 70
2017-09-03 00:00:00 8.4 3 Noroeste 20 Norte 0 -- -- 64
2017-09-02 23:00:00 9.3 4 Noroeste 15 Noroeste 0 -- -- 62
2017-09-02 22:00:00 10.2 3 Noroeste 14 Noroeste 0 -- -- 62
2017-09-02 21:00:00 12.1 5 Noroeste 14 Oeste 0 -- -- 53
2017-09-02 20:00:00 15.5 6 Norte 21 Noroeste 0 -- -- 38
2017-09-02 19:00:00 18.1 8 Noroeste 30 Noroeste 0 -- -- 37
2017-09-02 18:00:00 20 13 Noroeste 30 Noroeste 0 -- -- 32
2017-09-02 17:00:00 21.1 14 Noroeste 35 Noroeste 0 -- -- 29
2017-09-02 16:00:00 21.2 13 Noroeste 36 Noroeste 0 -- -- 28
2017-09-02 15:00:00 20.9 13 Norte 34 Noroeste 0 -- -- 29
2017-09-02 14:00:00 19.7 14 Noroeste 30 Noroeste 0 -- -- 29
2017-09-02 13:00:00 19 15 Noroeste 31 Noroeste 0 -- -- 33
2017-09-02 12:00:00 17.6 15 Norte 43 Noroeste 0 -- -- 36
2017-09-02 11:00:00 16.1 13 Noroeste 32 Norte 0 -- -- 40
2017-09-02 10:00:00 14.8 14 Noroeste 31 Noroeste 0 -- -- 41
2017-09-02 09:00:00 12 10 Noroeste 26 Noroeste 0 -- -- 49
2017-09-02 08:00:00 9.1 8 Noroeste 19 Norte 0 -- -- 65
2017-09-02 07:00:00 8.3 4 Norte 14 Noroeste 0 -- -- 74
2017-09-02 06:00:00 7.7 5 Noroeste 13 Norte 0 -- -- 79
2017-09-02 05:00:00 7.3 3 Noroeste 10 Noroeste 0 -- -- 79
2017-09-02 04:00:00 8.4 0 Calma 19 Norte 0 -- -- 69
2017-09-02 03:00:00 9.9 5 Norte 24 Norte 0 -- -- 62
2017-09-02 02:00:00 11.5 8 Norte 23 Norte 0 -- -- 54
2017-09-02 01:00:00 11.7 9 Norte 32 Noroeste 0 -- -- 52
2017-09-02 00:00:00 12.8 15 Noroeste 35 Noroeste 0 -- -- 46
2017-09-01 23:00:00 13.9 13 Noroeste 32 Noroeste 0 -- -- 47
2017-09-01 22:00:00 14.8 12 Noroeste 28 Noroeste 0 -- -- 51
2017-09-01 21:00:00 14.6 12 Noroeste 31 Noroeste 0 -- -- 53
2017-09-01 20:00:00 15.7 12 Noroeste 34 Noroeste 0 -- -- 52
2017-09-01 19:00:00 16.2 13 Noroeste 41 Noroeste 0 -- -- 52
2017-09-01 18:00:00 17.5 11 Noroeste 36 Noroeste 0 -- -- 49
2017-09-01 17:00:00 18.7 11 Noroeste 33 Noroeste 0 -- -- 45
2017-09-01 16:00:00 20.5 3 Sudeste 19 Este 0 -- -- 47
2017-09-01 15:00:00 20.6 4 Sur 15 Sur 0 -- -- 50
2017-09-01 14:00:00 21.5 4 Sudeste 22 Sudeste 0 -- -- 43
2017-09-01 13:00:00 20.7 6 Este 17 Noroeste 0 -- -- 44
2017-09-01 12:00:00 18.8 6 Noroeste 16 Norte 0 -- -- 40
2017-09-01 11:00:00 14 3 Este 9 Este 0 -- -- 73
2017-09-01 10:00:00 11.8 0 Calma 7 Noroeste 0 -- -- 91
2017-09-01 09:00:00 8 0 Calma 10 Norte 0 -- -- 98
2017-09-01 08:00:00 7.5 2 Noroeste 11 Noroeste 0 -- -- 97
2017-09-01 07:00:00 7.8 0 Calma 9 Noroeste 0 -- -- 97
2017-09-01 06:00:00 8.3 3 Noroeste 10 Norte 0 -- -- 97
2017-09-01 05:00:00 8.7 2 Noroeste 6 Norte 0 -- -- 97
2017-09-01 04:00:00 9.3 0 Calma 6 Noroeste 0 -- -- 97
2017-09-01 03:00:00 9.9 2 Noroeste 5 Noroeste 0 -- -- 96
2017-09-01 02:00:00 10.5 0 Calma 4 Noroeste 0 -- -- 96
2017-09-01 01:00:00 11.4 0 Calma 5 Noroeste 0 -- -- 96
2017-09-01 00:00:00 12 0 Calma 6 Noroeste 0 -- -- 95
2017-08-31 23:00:00 12.5 0 Calma 6 Norte 0 -- -- 94
2017-08-31 22:00:00 13.4 2 Noroeste 5 Noroeste 0 -- -- 93
2017-08-31 21:00:00 15.1 0 Calma 20 Este 0 -- -- 86
2017-08-31 20:00:00 16.4 2 Noroeste 6 Noroeste 0 -- -- 88
2017-08-31 19:00:00 18 0 Calma 18 Sudeste 0 -- -- 80
2017-08-31 18:00:00 19.2 4 Sudeste 17 Este 0 -- -- 69
2017-08-31 17:00:00 19.8 3 Sur 19 Sudeste 0 -- -- 71
2017-08-31 16:00:00 19.8 4 Sudeste 18 Sur 0 -- -- 62
2017-08-31 15:00:00 20.8 7 Sudeste 22 Sudeste 0 -- -- 57
2017-08-31 14:00:00 20.5 6 Sudeste 31 Este 0 -- -- 55
2017-08-31 13:00:00 17.5 12 Este 27 Este 0 -- -- 70
2017-08-31 12:00:00 17.7 5 Noroeste 13 Norte 0.2 -- -- 77
2017-08-31 11:00:00 14.8 2 Sur 9 Norte 0.2 -- -- 97
2017-08-31 10:00:00 13.8 0 Calma 11 Sur 8.6 -- -- 97
2017-08-31 09:00:00 13.7 0 Calma 7 Noroeste 2.8 -- -- 97
2017-08-31 08:00:00 13.3 4 Sudeste 8 Noroeste 0 -- -- 97
2017-08-31 07:00:00 13.1 0 Calma 10 Norte 0.2 -- -- 97
2017-08-31 06:00:00 13.1 2 Norte 10 Norte 0 -- -- 97
2017-08-31 05:00:00 13.2 0 Calma 9 Norte 0 -- -- 96
2017-08-31 04:00:00 13.3 0 Calma 13 Norte 0 -- -- 96
2017-08-31 03:00:00 13.4 6 Norte 18 Norte 0 -- -- 95
2017-08-31 02:00:00 14.1 0 Calma 22 Noroeste 6.8 -- -- 93
2017-08-31 01:00:00 14.8 0 Calma 5 Norte 0 -- -- 92
2017-08-31 00:00:00 15 0 Calma 11 Norte 0 -- -- 90
2017-08-30 23:00:00 16.3 7 Norte 19 Norte 0 -- -- 85
2017-08-30 22:00:00 16.6 4 Noroeste 15 Este 0 -- -- 87
2017-08-30 21:00:00 17.2 2 Noroeste 8 Sudoeste 0 -- -- 85
2017-08-30 20:00:00 18.7 4 Noroeste 26 Este 0 -- -- 76
2017-08-30 19:00:00 20.6 7 Este 20 Este 0 -- -- 59
2017-08-30 18:00:00 21.3 4 Sudeste 18 Este 0 -- -- 57
2017-08-30 17:00:00 22.4 8 Nordeste 26 Este 0 -- -- 53
2017-08-30 16:00:00 23.4 7 Este 26 Sur 0 -- -- 45
2017-08-30 15:00:00 24.7 7 Sudeste 27 Sudeste 0 -- -- 43
2017-08-30 14:00:00 25.2 9 Sudeste 33 Este 0 -- -- 39
2017-08-30 13:00:00 23.4 7 Sudeste 27 Sudeste 0 -- -- 47
2017-08-30 12:00:00 22.7 5 Sudeste 21 Sur 0 -- -- 47
2017-08-30 11:00:00 19.7 6 Sudeste 35 Sur 0 -- -- 57
2017-08-30 10:00:00 19 5 Este 22 Sudeste 0 -- -- 64
2017-08-30 09:00:00 17 4 Sudeste 18 Este 0 -- -- 67
2017-08-30 08:00:00 16.3 4 Sudeste 24 Nordeste 0 -- -- 70
2017-08-30 07:00:00 16.1 8 Sudeste 19 Este 0 -- -- 69
2017-08-30 06:00:00 14.6 4 Noroeste 6 Norte 0 -- -- 88
2017-08-30 05:00:00 15.1 0 Calma 5 Noroeste 0 -- -- 89
2017-08-30 04:00:00 14.8 0 Calma 6 Norte 0 -- -- 89
2017-08-30 03:00:00 14.3 3 Noroeste 5 Noroeste 0 -- -- 90
2017-08-30 02:00:00 14.4 0 Calma 5 Norte 0 -- -- 88
2017-08-30 01:00:00 15.1 2 Noroeste 6 Oeste 0 -- -- 85
2017-08-30 00:00:00 15.8 0 Calma 7 Norte 0 -- -- 82
2017-08-29 23:00:00 16 3 Noroeste 11 Nordeste 0 -- -- 78
2017-08-29 22:00:00 18.2 2 Sur 17 Este 0 -- -- 72
2017-08-29 21:00:00 20.4 0 Calma 27 Este 0 -- -- 59
2017-08-29 20:00:00 22.1 8 Este 28 Sudeste 0 -- -- 47
2017-08-29 19:00:00 22.9 6 Sudeste 26 Sudeste 0 -- -- 44
2017-08-29 18:00:00 23.2 6 Sudeste 33 Este 0 -- -- 51
2017-08-29 17:00:00 23.9 7 Este 33 Este 0 -- -- 52
2017-08-29 16:00:00 24.1 8 Sudeste 37 Este 0 -- -- 51
2017-08-29 15:00:00 25.2 7 Sudeste 32 Sudeste 0 -- -- 45
2017-08-29 14:00:00 25.8 7 Sudeste 28 Este 0 -- -- 44
2017-08-29 13:00:00 25.9 9 Sudeste 23 Sur 0 -- -- 49
2017-08-29 12:00:00 23 4 Sudeste 16 Sudeste 0 -- -- 63
2017-08-29 11:00:00 19.3 0 Calma 18 Sur 0 -- -- 74
2017-08-29 10:00:00 17.1 3 Norte 6 Noroeste 0 -- -- 86
2017-08-29 09:00:00 14.7 0 Calma 12 Norte 0 -- -- 97
2017-08-29 08:00:00 14.2 2 Noroeste 10 Norte 0 -- -- 97
2017-08-29 07:00:00 14.9 2 Norte 9 Norte 0 -- -- 96
2017-08-29 06:00:00 15.7 3 Noroeste 10 Norte 0 -- -- 96
2017-08-29 05:00:00 16.4 2 Noroeste 12 Norte 0 -- -- 96
2017-08-29 04:00:00 16.8 0 Calma 11 Norte 0 -- -- 97
2017-08-29 03:00:00 16.9 0 Calma 13 Norte 0 -- -- 96
2017-08-29 02:00:00 17 4 Noroeste 7 Noroeste 0 -- -- 97
2017-08-29 01:00:00 17 0 Calma 8 Noroeste 0 -- -- 96
2017-08-29 00:00:00 17.1 3 Noroeste 10 Noroeste 0 -- -- 96
2017-08-28 23:00:00 17.2 0 Calma 7 Noroeste 0 -- -- 95
2017-08-28 22:00:00 17.6 2 Noroeste 10 Norte 0 -- -- 93
2017-08-28 21:00:00 18.3 4 Norte 10 Noroeste 0 -- -- 92
2017-08-28 20:00:00 19.5 3 Este 13 Noroeste 0 -- -- 88
2017-08-28 19:00:00 20.3 4 Norte 38 Sur 2.2 -- -- 85
2017-08-28 18:00:00 27.9 6 Este 23 Este 0 -- -- 33
2017-08-28 17:00:00 28.9 5 Sudeste 15 Sur 0 -- -- 35
2017-08-28 16:00:00 30.2 6 Sudeste 19 Sudeste 0 -- -- 36
2017-08-28 15:00:00 30.2 4 Este 16 Sur 0 -- -- 34
2017-08-28 14:00:00 27.8 3 Sudeste 13 Sudeste 0 -- -- 37
2017-08-28 13:00:00 27.2 4 Sudeste 12 Norte 0 -- -- 40
2017-08-28 12:00:00 24.2 0 Calma 11 Noroeste 0 -- -- 60
2017-08-28 11:00:00 19.8 5 Norte 16 Norte 0 -- -- 71
2017-08-28 10:00:00 17 4 Noroeste 17 Oeste 0 -- -- 85
2017-08-28 09:00:00 14.2 4 Noroeste 13 Noroeste 0 -- -- 92
2017-08-28 08:00:00 13 4 Noroeste 18 Norte 0 -- -- 93
2017-08-28 07:00:00 12.1 2 Noroeste 12 Norte 0 -- -- 96
2017-08-28 06:00:00 12.4 0 Calma 14 Norte 0 -- -- 96
2017-08-28 05:00:00 12.8 3 Noroeste 12 Sudoeste 0 -- -- 96
2017-08-28 04:00:00 13.3 2 Norte 15 Noroeste 0 -- -- 95
2017-08-28 03:00:00 13.9 3 Noroeste 17 Norte 0 -- -- 94
2017-08-28 02:00:00 13.8 3 Noroeste 12 Norte 0 -- -- 96
2017-08-28 01:00:00 14.6 2 Norte 13 Norte 0 -- -- 95
2017-08-28 00:00:00 15.2 2 Noroeste 8 Norte 0 -- -- 95
2017-08-27 23:00:00 16.2 0 Calma 19 Norte 0 -- -- 94
2017-08-27 22:00:00 16.5 4 Norte 22 Norte 0 -- -- 95
2017-08-27 21:00:00 17.1 2 Noroeste 9 Noroeste 0.2 -- -- 92
2017-08-27 20:00:00 18.9 0 Calma 15 Sudeste 1.2 -- -- 85
2017-08-27 19:00:00 21.9 5 Sudeste 14 Este 0 -- -- 72
2017-08-27 18:00:00 23.2 4 Noroeste 24 Norte 0 -- -- 63
2017-08-27 17:00:00 22.6 4 Noroeste 11 Noroeste 0 -- -- 67
2017-08-27 16:00:00 23.6 2 Noroeste 24 Noroeste 0 -- -- 61
2017-08-27 15:00:00 25.6 10 Noroeste 26 Noroeste 0 -- -- 42
2017-08-27 14:00:00 24 12 Noroeste 25 Noroeste 0 -- -- 48
2017-08-27 13:00:00 22.1 10 Norte 21 Norte 0 -- -- 59
2017-08-27 12:00:00 21.1 3 Norte 9 Norte 0 -- -- 82
2017-08-27 11:00:00 21 3 Noroeste 9 Norte 0 -- -- 70
2017-08-27 10:00:00 18.8 2 Oeste 11 Noroeste 0 -- -- 80
2017-08-27 09:00:00 17.6 4 Noroeste 13 Norte 0 -- -- 77
2017-08-27 08:00:00 15.7 2 Noroeste 14 Norte 0 -- -- 83
2017-08-27 07:00:00 16.2 9 Norte 23 Norte 0 -- -- 78
2017-08-27 06:00:00 15.6 2 Norte 8 Norte 0 -- -- 83
2017-08-27 05:00:00 16.2 2 Norte 10 Noroeste 0 -- -- 81
2017-08-27 04:00:00 16.3 0 Calma 13 Norte 0 -- -- 81
2017-08-27 03:00:00 16.5 3 Noroeste 16 Norte 0 -- -- 79
2017-08-27 02:00:00 16.6 4 Noroeste 13 Noroeste 0 -- -- 79
2017-08-27 01:00:00 17.3 5 Noroeste 19 Norte 0 -- -- 77
2017-08-27 00:00:00 18.2 6 Noroeste 28 Norte 0 -- -- 75
2017-08-26 23:00:00 18 5 Noroeste 15 Noroeste 0 -- -- 82
2017-08-26 22:00:00 19.6 2 Noroeste 10 Noroeste 0 -- -- 77
2017-08-26 21:00:00 21 4 Sudoeste 13 Este 0 -- -- 59
2017-08-26 20:00:00 22.1 3 Norte 7 Norte 0 -- -- 61
2017-08-26 19:00:00 24.3 2 Noroeste 8 Sur 0 -- -- 53
2017-08-26 18:00:00 29.2 3 Sur 14 Sur 0 -- -- 37
2017-08-26 17:00:00 28.9 7 Sudeste 18 Sur 0 -- -- 29
2017-08-26 16:00:00 28.4 5 Sudeste 22 Sudeste 0 -- -- 34
2017-08-26 15:00:00 28.3 6 Sudeste 21 Sudeste 0 -- -- 32
2017-08-26 14:00:00 28.4 6 Sudeste 21 Sur 0 -- -- 33
2017-08-26 13:00:00 28.3 6 Sudeste 21 Sudeste 0 -- -- 32
2017-08-26 12:00:00 25 3 Sudeste 8 Este 0 -- -- 44
2017-08-26 11:00:00 21.1 3 Norte 8 Noroeste 0 -- -- 66
2017-08-26 10:00:00 18 0 Calma 5 Este 0 -- -- 80
2017-08-26 09:00:00 14.9 0 Calma 6 Este 0 -- -- 90
2017-08-26 08:00:00 13.6 0 Calma 5 Norte 0 -- -- 91
2017-08-26 07:00:00 13.4 0 Calma 9 Noroeste 0 -- -- 90
2017-08-26 06:00:00 13.8 2 Noroeste 9 Noroeste 0 -- -- 89
2017-08-26 05:00:00 14.1 0 Calma 9 Noroeste 0 -- -- 88
2017-08-26 04:00:00 14.4 0 Calma 8 Noroeste 0 -- -- 87
2017-08-26 03:00:00 15 0 Calma 13 Noroeste 0 -- -- 83
2017-08-26 02:00:00 14.9 0 Calma 8 Noroeste 0 -- -- 87
2017-08-26 01:00:00 15.1 2 Noroeste 10 Norte 0 -- -- 86
2017-08-26 00:00:00 15.8 2 Oeste 7 Oeste 0 -- -- 84
2017-08-25 23:00:00 16.2 2 Noroeste 8 Norte 0 -- -- 83
2017-08-25 22:00:00 17.3 2 Noroeste 12 Norte 0 -- -- 80
2017-08-25 21:00:00 18.7 3 Norte 14 Noroeste 0 -- -- 73
2017-08-25 20:00:00 20.3 2 Noroeste 6 Noroeste 0 -- -- 69
2017-08-25 19:00:00 22.5 2 Noroeste 12 Noroeste 0 -- -- 60
2017-08-25 18:00:00 25.7 2 Noroeste 23 Este 0 -- -- 51
2017-08-25 17:00:00 29.3 3 Sudeste 24 Este 0 -- -- 27
2017-08-25 16:00:00 28.7 5 Sudeste 13 Sudeste 0 -- -- 31
2017-08-25 15:00:00 25.7 3 Este 14 Este 0 -- -- 41
2017-08-25 14:00:00 24.8 4 Sur 26 Sur 0 -- -- 44
2017-08-25 13:00:00 26.2 7 Sudeste 25 Este 0 -- -- 39
2017-08-25 12:00:00 24.8 7 Sudeste 22 Sudeste 0 -- -- 40
2017-08-25 11:00:00 20.9 2 Norte 7 Noroeste 0 -- -- 55
2017-08-25 10:00:00 18 2 Norte 10 Noroeste 0 -- -- 71
2017-08-25 09:00:00 13.8 2 Norte 6 Noroeste 0 -- -- 94
2017-08-25 08:00:00 12.4 2 Norte 12 Norte 0 -- -- 95
2017-08-25 07:00:00 12 0 Calma 6 Noroeste 0 -- -- 95
2017-08-25 06:00:00 12.4 2 Noroeste 7 Noroeste 0 -- -- 95
2017-08-25 05:00:00 12.8 2 Noroeste 8 Noroeste 0 -- -- 94
2017-08-25 04:00:00 13.4 2 Noroeste 6 Noroeste 0 -- -- 93
2017-08-25 03:00:00 13.8 3 Noroeste 7 Norte 0 -- -- 93
2017-08-25 02:00:00 14.5 2 Noroeste 7 Noroeste 0 -- -- 90
2017-08-25 01:00:00 15.2 2 Norte 14 Norte 0 -- -- 90
2017-08-25 00:00:00 15.6 0 Calma 7 Noroeste 0 -- -- 89
2017-08-24 23:00:00 16 2 Noroeste 5 Norte 0 -- -- 87
2017-08-24 22:00:00 17.2 0 Calma 8 Noroeste 0 -- -- 84
2017-08-24 21:00:00 18.5 0 Calma 7 Noroeste 0 -- -- 79
2017-08-24 20:00:00 20 3 Noroeste 6 Noroeste 0 -- -- 73
2017-08-24 19:00:00 23.3 2 Noroeste 15 Sudeste 0 -- -- 61
2017-08-24 18:00:00 27.3 0 Calma 13 Sudeste 0 -- -- 53
2017-08-24 17:00:00 30.1 6 Sudeste 17 Sudeste 0 -- -- 36
2017-08-24 16:00:00 29.8 7 Sudeste 19 Sudeste -- -- -- 36
2017-08-24 15:00:00 29.2 5 Sudeste 19 Sudeste -- -- -- 37
2017-08-24 14:00:00 28 9 Sudeste -- -- -- -- -- 42
2017-08-24 13:00:00 26.3 7 Sudeste 18 Sudeste -- -- -- 45
2017-08-24 12:00:00 23.6 0 Calma 5 Norte -- -- -- 59
2017-08-24 11:00:00 20.1 3 Noroeste 9 Noroeste -- -- -- 70
2017-08-24 10:00:00 17.6 2 Noroeste 17 Oeste -- -- -- 80
2017-08-24 09:00:00 13.9 2 Norte 18 Norte -- -- -- 98
2017-08-24 08:00:00 12.3 2 Noroeste 10 Noroeste -- -- -- 98
2017-08-24 07:00:00 12.5 2 Noroeste 12 Norte -- -- -- 98
2017-08-24 06:00:00 13.1 0 Calma 18 Noroeste -- -- -- 97
2017-08-24 05:00:00 13.7 0 Calma 11 Noroeste -- -- -- 97
2017-08-24 04:00:00 14.9 5 Norte 40 Noroeste -- -- -- 95
2017-08-24 03:00:00 14.8 0 Calma 14 Norte -- -- -- 98
2017-08-24 02:00:00 14.7 3 Noroeste 8 Noroeste -- -- -- 98
2017-08-24 01:00:00 14.8 6 Norte 27 Norte -- -- -- 96
2017-08-24 00:00:00 15 4 Norte 18 Noroeste -- -- -- 95
2017-08-23 23:00:00 15.4 14 Norte 37 Norte -- -- -- 93
2017-08-23 22:00:00 16.3 2 Noroeste 20 Norte -- -- -- 96
2017-08-23 21:00:00 16.6 0 Calma 14 Norte -- -- -- 92
2017-08-23 20:00:00 17.2 3 Noroeste 8 Noroeste -- -- -- 93
2017-08-23 19:00:00 19.4 0 Calma 18 Norte -- -- -- 84
2017-08-23 18:00:00 20.5 2 Norte 27 Noroeste -- -- -- 82
2017-08-23 17:00:00 19 8 Norte 18 Norte -- -- -- 89
2017-08-23 16:00:00 23.4 4 Noroeste 12 Noroeste -- -- -- 65
2017-08-23 15:00:00 25.2 3 Noroeste 15 Este -- -- -- 62
2017-08-23 14:00:00 26.8 6 Sudeste 24 Sur -- -- -- 44
2017-08-23 13:00:00 27.6 10 Sudeste 26 Sudeste 0 -- -- 43
2017-08-23 12:00:00 23.7 0 Calma 6 Sudeste 0.2 -- -- 70
2017-08-23 11:00:00 19.8 2 Nordeste 8 Noroeste 0.2 -- -- 87
2017-08-23 10:00:00 22.1 2 Este 6 Sudeste 0 -- -- 62
2017-08-23 09:00:00 17.7 3 Este 12 Norte 0 -- -- 81
2017-08-23 08:00:00 16.9 0 Calma 5 Noroeste 0 -- -- 86
2017-08-23 07:00:00 18.6 0 Calma 22 Noroeste 0 -- -- 76
2017-08-23 06:00:00 20.6 6 Norte 26 Norte 0 -- -- 53
2017-08-23 05:00:00 18.6 6 Noroeste 17 Norte 0 -- -- 68
2017-08-23 04:00:00 17.3 0 Calma 11 Noroeste 0 -- -- 76
2017-08-23 03:00:00 18.3 0 Calma 19 Norte 0 -- -- 72
2017-08-23 02:00:00 17.5 2 Este 10 Oeste 0 -- -- 76
2017-08-23 01:00:00 17.4 5 Noroeste 13 Norte 0 -- -- 75
2017-08-23 00:00:00 18 2 Noroeste 14 Nordeste 0 -- -- 74
2017-08-22 23:00:00 19.2 0 Calma 8 Noroeste 0 -- -- 69
2017-08-22 22:00:00 20 2 Noroeste 6 Noroeste 0 -- -- 67
2017-08-22 21:00:00 21.5 0 Calma 5 Noroeste 0 -- -- 61
2017-08-22 20:00:00 24.1 2 Oeste 8 Este 0 -- -- 53
2017-08-22 19:00:00 28.5 2 Oeste 21 Sudeste 0 -- -- 32
2017-08-22 18:00:00 34.3 4 Sudeste 26 Este 0 -- -- 22
2017-08-22 17:00:00 34.8 6 Sudeste 25 Sur 0 -- -- 18
2017-08-22 16:00:00 34.8 8 Sudeste 26 Sudeste 0 -- -- 18
2017-08-22 15:00:00 34.2 7 Sudeste 27 Sur 0 -- -- 19
2017-08-22 14:00:00 33.3 7 Sudeste 27 Sudeste 0 -- -- 21
2017-08-22 13:00:00 31.7 8 Sudeste 23 Sur 0 -- -- 21
2017-08-22 12:00:00 28.6 6 Este 23 Este 0 -- -- 28
2017-08-22 11:00:00 23.2 0 Calma 8 Noroeste 0 -- -- 51
2017-08-22 10:00:00 19.6 0 Calma 11 Noroeste 0 -- -- 61
2017-08-22 09:00:00 13.2 2 Nordeste 9 Noroeste 0 -- -- 86
2017-08-22 08:00:00 11.7 0 Calma 14 Noroeste 0 -- -- 87
2017-08-22 07:00:00 11.6 3 Noroeste 8 Noroeste 0 -- -- 87
2017-08-22 06:00:00 12 0 Calma 8 Noroeste 0 -- -- 86
2017-08-22 05:00:00 12.5 0 Calma 8 Oeste 0 -- -- 84
2017-08-22 04:00:00 13 2 Noroeste 8 Noroeste 0 -- -- 82
2017-08-22 03:00:00 13.5 2 Noroeste 12 Norte 0 -- -- 78
2017-08-22 02:00:00 13.9 2 Noroeste 7 Noroeste 0 -- -- 78
2017-08-22 01:00:00 14.7 0 Calma 7 Oeste 0 -- -- 75
2017-08-22 00:00:00 15.6 0 Calma 9 Noroeste 0 -- -- 71